Time;durP1;ratioP1;P1;durP2;ratioP2;P2;SDS_P1;SDS_P2;PMS_P1;PMS_P2;Temp;Humidity;BMP_temperature;BMP_pressure;BME280_temperature;BME280_humidity;BME280_pressure;Samples;Min_cycle;Max_cycle;Signal;HPM_P1;HPM_P2
2023/01/04 00:00:26;;;;;;;16.37;11.68;;;8.90;90.90;;;;;;1893169;76;21049;-58
2023/01/04 00:02:55;;;;;;;16.75;11.18;;;8.90;91.20;;;;;;1893168;76;21044;-58
2023/01/04 00:05:25;;;;;;;15.15;10.72;;;8.90;91.10;;;;;;1893201;76;21084;-58
2023/01/04 00:07:54;;;;;;;13.20;9.85;;;8.90;91.20;;;;;;1893161;76;21072;-57
2023/01/04 00:10:23;;;;;;;16.90;10.40;;;8.80;91.20;;;;;;1893170;76;21108;-58
2023/01/04 00:12:52;;;;;;;15.68;10.80;;;8.80;91.20;;;;;;1893289;76;21153;-58
2023/01/04 00:15:21;;;;;;;15.28;10.40;;;8.80;91.40;;;;;;1893189;75;21232;-58
2023/01/04 00:17:50;;;;;;;15.88;10.82;;;8.80;91.60;;;;;;1893248;76;21073;-57
2023/01/04 00:20:19;;;;;;;16.85;11.73;;;8.80;91.40;;;;;;1893269;76;21124;-57
2023/01/04 00:22:48;;;;;;;15.93;10.18;;;8.80;91.70;;;;;;1893283;76;21247;-58
2023/01/04 00:25:18;;;;;;;18.12;11.43;;;8.80;91.60;;;;;;1893200;76;20981;-58
2023/01/04 00:27:47;;;;;;;17.67;11.55;;;8.90;91.60;;;;;;1893211;76;21114;-57
2023/01/04 00:30:16;;;;;;;16.35;11.35;;;8.80;91.70;;;;;;1893179;76;21073;-58
2023/01/04 00:32:46;;;;;;;16.60;11.03;;;8.90;91.70;;;;;;1893263;75;21048;-58
2023/01/04 00:35:15;;;;;;;17.32;11.43;;;8.90;91.80;;;;;;1893158;76;21158;-58
2023/01/04 00:37:44;;;;;;;16.70;11.35;;;8.90;91.90;;;;;;1893234;76;21160;-58
2023/01/04 00:40:13;;;;;;;18.40;10.45;;;8.90;91.70;;;;;;1893237;76;21152;-58
2023/01/04 00:42:43;;;;;;;15.83;10.72;;;8.80;91.70;;;;;;1893111;76;21220;-58
2023/01/04 00:45:12;;;;;;;15.80;11.15;;;8.80;91.80;;;;;;1893126;76;21136;-58
2023/01/04 00:47:42;;;;;;;15.80;12.13;;;8.80;91.90;;;;;;1893112;76;21366;-58
2023/01/04 00:50:11;;;;;;;14.95;10.82;;;8.70;92.00;;;;;;1893115;76;21139;-58
2023/01/04 00:52:40;;;;;;;13.28;9.88;;;8.70;92.00;;;;;;1893151;76;21040;-58
2023/01/04 00:55:10;;;;;;;15.75;10.90;;;8.70;92.00;;;;;;1893149;76;21056;-58
2023/01/04 00:57:39;;;;;;;18.75;12.95;;;8.60;91.70;;;;;;1893175;76;21192;-58
2023/01/04 01:00:09;;;;;;;18.15;12.47;;;8.50;91.80;;;;;;1893157;76;21250;-58
2023/01/04 01:02:38;;;;;;;17.80;11.73;;;8.50;92.00;;;;;;1893188;76;21309;-58
2023/01/04 01:05:08;;;;;;;18.95;11.43;;;8.40;92.20;;;;;;1893054;76;21465;-57
2023/01/04 01:07:37;;;;;;;19.25;12.75;;;8.50;92.30;;;;;;1893158;76;21136;-58
2023/01/04 01:10:07;;;;;;;18.20;11.73;;;8.40;92.50;;;;;;1893205;76;21076;-58
2023/01/04 01:12:36;;;;;;;16.90;11.00;;;8.50;92.20;;;;;;1893213;76;21112;-58
2023/01/04 01:15:06;;;;;;;18.45;12.35;;;8.40;92.10;;;;;;1893017;75;21221;-58
2023/01/04 01:17:36;;;;;;;18.75;12.07;;;8.40;92.10;;;;;;1893144;76;21354;-58
2023/01/04 01:20:06;;;;;;;21.23;12.63;;;8.40;92.20;;;;;;1893228;76;21176;-58
2023/01/04 01:22:38;;;;;;;18.07;11.90;;;8.40;92.20;;;;;;1893220;76;21192;-58
2023/01/04 01:25:07;;;;;;;18.42;11.85;;;8.40;92.20;;;;;;1893106;76;21128;-58
2023/01/04 01:27:37;;;;;;;18.65;12.75;;;8.40;92.00;;;;;;1893230;76;21081;-58
2023/01/04 01:30:07;;;;;;;18.00;11.50;;;8.20;91.60;;;;;;1893167;76;21012;-58
2023/01/04 01:32:36;;;;;;;21.05;13.35;;;8.10;92.30;;;;;;1893168;76;21088;-58
2023/01/04 01:35:05;;;;;;;19.15;13.32;;;8.10;92.30;;;;;;1893083;76;21012;-58
2023/01/04 01:37:35;;;;;;;22.90;15.03;;;8.10;92.40;;;;;;1893075;76;21227;-58
2023/01/04 01:40:04;;;;;;;22.87;14.65;;;8.10;92.60;;;;;;1893100;76;21276;-58
2023/01/04 01:42:34;;;;;;;20.97;13.95;;;8.20;92.70;;;;;;1893301;76;21195;-58
2023/01/04 01:45:10;;;;;;;20.10;13.72;;;8.30;92.70;;;;;;1893208;76;21176;-58
2023/01/04 01:47:41;;;;;;;20.15;13.43;;;8.30;92.60;;;;;;1893232;76;21253;-58
2023/01/04 01:50:16;;;;;;;21.33;14.68;;;8.40;92.70;;;;;;1893256;76;21108;-58
2023/01/04 01:52:46;;;;;;;22.22;13.88;;;8.40;92.60;;;;;;1893131;76;21132;-58
2023/01/04 01:55:16;;;;;;;20.88;14.25;;;8.40;92.50;;;;;;1893350;76;21021;-58
2023/01/04 01:57:47;;;;;;;22.60;13.90;;;8.40;92.50;;;;;;1893221;76;21073;-58
2023/01/04 02:00:17;;;;;;;22.13;14.63;;;8.40;92.60;;;;;;1893260;76;21574;-58
2023/01/04 02:02:49;;;;;;;21.12;13.25;;;8.40;92.60;;;;;;1893322;76;21069;-58
2023/01/04 02:05:19;;;;;;;22.37;13.93;;;8.40;92.60;;;;;;1890316;76;21197;-58
2023/01/04 02:07:50;;;;;;;23.47;13.85;;;8.40;92.80;;;;;;1893335;76;21082;-58
2023/01/04 02:10:19;;;;;;;22.40;12.88;;;8.40;92.80;;;;;;1893210;76;21218;-58
2023/01/04 02:12:51;;;;;;;22.00;13.88;;;8.50;92.80;;;;;;1893167;76;21151;-57
2023/01/04 02:15:23;;;;;;;21.45;13.15;;;8.50;92.90;;;;;;1893231;76;21195;-58
2023/01/04 02:18:03;;;;;;;20.80;12.80;;;8.40;92.20;;;;;;1893170;75;21554;-58
2023/01/04 02:20:40;;;;;;;21.80;13.72;;;8.40;92.20;;;;;;1892976;76;21388;-58
2023/01/04 02:23:24;;;;;;;22.67;12.53;;;8.20;92.50;;;;;;1887212;76;21108;-58
2023/01/04 02:26:21;;;;;;;18.62;12.45;;;8.20;92.60;;;;;;1893068;76;21124;-58
2023/01/04 02:29:13;;;;;;;17.05;12.28;;;8.20;92.80;;;;;;1893073;76;21068;-57
2023/01/04 02:32:03;;;;;;;20.23;12.05;;;8.30;92.90;;;;;;1893114;76;21269;-58
2023/01/04 02:34:53;;;;;;;18.75;12.82;;;8.40;93.00;;;;;;1892746;76;21120;-58
2023/01/04 02:37:28;;;;;;;18.37;11.22;;;8.40;92.80;;;;;;1892245;76;21209;-58
2023/01/04 02:39:59;;;;;;;19.42;13.88;;;8.50;92.70;;;;;;1893279;76;21080;-58
2023/01/04 02:45:38;;;;;;;18.82;11.35;;;8.50;92.90;;;;;;1893170;76;21223;-58
2023/01/04 02:50:58;;;;;;;20.05;11.83;;;8.60;92.60;;;;;;1893349;76;21152;-58
2023/01/04 02:53:39;;;;;;;18.80;12.25;;;8.50;92.20;;;;;;1893278;76;21171;-57
2023/01/04 02:56:34;;;;;;;17.27;11.90;;;8.40;92.40;;;;;;1893252;76;21075;-58
2023/01/04 02:59:28;;;;;;;21.80;12.65;;;8.30;92.60;;;;;;1893258;76;21192;-57
2023/01/04 03:08:28;;;;;;;15.95;12.18;;;8.40;93.10;;;;;;1893272;76;21247;-58
2023/01/04 03:11:02;;;;;;;21.40;10.58;;;8.50;93.00;;;;;;1893301;76;21111;-58
2023/01/04 03:13:37;;;;;;;17.85;11.33;;;8.60;92.90;;;;;;1893540;76;21539;-58
2023/01/04 03:16:10;;;;;;;;;;;8.60;92.90;;;;;;1896146;76;21252;-58
2023/01/04 03:18:42;;;;;;;18.87;11.38;;;8.60;92.80;;;;;;1893293;75;20613;-58
2023/01/04 03:21:13;;;;;;;18.82;11.70;;;8.70;92.80;;;;;;1893325;76;21057;-57
2023/01/04 03:50:07;;;;;;;17.80;11.15;;;8.80;93.00;;;;;;1893291;76;21295;-58
2023/01/04 03:52:37;;;;;;;17.95;10.78;;;8.90;93.10;;;;;;1893421;76;21082;-58
2023/01/04 03:55:09;;;;;;;17.95;11.25;;;8.90;93.10;;;;;;1893395;76;21068;-58
2023/01/04 03:57:38;;;;;;;20.43;11.93;;;8.90;93.10;;;;;;1893291;76;21049;-58
2023/01/04 04:00:13;;;;;;;23.42;13.13;;;9.00;93.10;;;;;;1893258;76;21325;-58
2023/01/04 04:02:44;;;;;;;22.17;12.15;;;8.90;92.70;;;;;;1893395;76;21202;-58
2023/01/04 04:10:55;;;;;;;16.93;10.50;;;8.90;93.20;;;;;;1893398;76;21110;-58
2023/01/04 04:13:25;;;;;;;24.75;12.95;;;8.90;93.20;;;;;;1893241;76;21279;-58
2023/01/04 04:15:54;;;;;;;29.07;14.05;;;9.00;93.20;;;;;;1893198;76;21124;-58
2023/01/04 04:18:24;;;;;;;20.00;12.23;;;9.00;93.30;;;;;;1890875;75;21179;-58
2023/01/04 04:20:57;;;;;;;26.27;14.35;;;9.00;93.10;;;;;;1890105;76;21225;-58
2023/01/04 04:23:26;;;;;;;34.70;13.80;;;9.00;92.90;;;;;;1890154;76;21704;-58
2023/01/04 04:25:55;;;;;;;16.15;10.28;;;8.90;92.90;;;;;;1890188;76;21057;-58
2023/01/04 04:28:25;;;;;;;20.35;10.98;;;8.80;93.00;;;;;;1890076;75;21081;-58
2023/01/04 04:30:54;;;;;;;15.58;11.63;;;8.80;93.20;;;;;;1890199;76;21170;-58
2023/01/04 04:33:23;;;;;;;17.12;10.78;;;8.80;93.20;;;;;;1890202;76;21555;-58
2023/01/04 04:35:56;;;;;;;23.27;11.28;;;8.80;93.20;;;;;;1890063;76;21069;-58
2023/01/04 04:38:25;;;;;;;21.60;12.88;;;8.80;93.30;;;;;;1890060;76;21073;-58
2023/01/04 04:43:40;;;;;;;25.75;12.98;;;8.90;93.50;;;;;;1890031;76;21290;-58
2023/01/04 04:46:10;;;;;;;28.30;13.05;;;9.00;93.50;;;;;;1890061;76;21168;-57
2023/01/04 04:48:39;;;;;;;22.37;12.95;;;8.90;93.10;;;;;;1890086;76;21177;-58
2023/01/04 04:51:08;;;;;;;23.75;12.47;;;8.90;93.20;;;;;;1890013;76;21073;-58
2023/01/04 04:53:36;;;;;;;31.05;14.00;;;8.90;93.30;;;;;;1890116;76;21072;-58
2023/01/04 04:56:06;;;;;;;28.80;13.93;;;9.00;93.50;;;;;;1890052;76;21609;-58
2023/01/04 04:58:36;;;;;;;16.70;12.47;;;9.00;93.10;;;;;;1890089;76;21293;-57
2023/01/04 05:01:06;;;;;;;19.32;12.35;;;8.90;92.60;;;;;;1889950;76;21603;-58
2023/01/04 05:03:35;;;;;;;20.50;12.47;;;8.90;92.60;;;;;;1890052;76;21108;-58
2023/01/04 05:06:04;;;;;;;24.95;14.78;;;8.80;93.00;;;;;;1890031;76;21285;-57
2023/01/04 05:08:33;;;;;;;31.37;19.62;;;8.80;93.10;;;;;;1889944;76;21149;-58
2023/01/04 05:11:07;;;;;;;20.97;13.40;;;8.80;93.10;;;;;;1889928;76;21619;-58
2023/01/04 05:13:37;;;;;;;26.35;14.13;;;8.80;93.10;;;;;;1890244;76;21173;-57
2023/01/04 05:16:07;;;;;;;17.10;11.25;;;8.80;93.20;;;;;;1890013;76;21032;-58
2023/01/04 05:18:36;;;;;;;21.60;12.58;;;8.80;93.30;;;;;;1889947;75;21176;-58
2023/01/04 05:21:05;;;;;;;20.00;12.07;;;8.90;93.40;;;;;;1889785;76;21269;-57
2023/01/04 05:23:35;;;;;;;18.62;14.13;;;8.90;93.40;;;;;;1890068;76;21117;-57
2023/01/04 05:26:04;;;;;;;29.35;13.72;;;9.00;93.50;;;;;;1889963;76;21021;-58
2023/01/04 05:28:33;;;;;;;27.27;13.93;;;9.00;93.50;;;;;;1889814;76;21215;-57
2023/01/04 05:31:03;;;;;;;25.75;12.93;;;9.10;93.50;;;;;;1889847;76;21072;-57
2023/01/04 05:33:33;;;;;;;22.95;12.73;;;9.10;93.40;;;;;;1889918;76;21142;-58
2023/01/04 05:36:03;;;;;;;21.12;11.70;;;9.10;93.40;;;;;;1889908;76;21110;-58
2023/01/04 05:38:33;;;;;;;25.97;15.25;;;9.20;93.50;;;;;;1890073;76;21192;-58
2023/01/04 05:41:02;;;;;;;28.17;12.88;;;9.20;93.50;;;;;;1890045;76;21154;-58
2023/01/04 05:43:32;;;;;;;26.27;14.07;;;9.20;93.50;;;;;;1890002;76;21238;-57
2023/01/04 05:46:01;;;;;;;27.55;13.03;;;9.30;93.50;;;;;;1889979;76;21289;-58
2023/01/04 05:48:30;;;;;;;21.97;12.43;;;9.30;93.50;;;;;;1889965;75;21300;-58
2023/01/04 05:50:59;;;;;;;24.72;12.05;;;9.30;93.20;;;;;;1890067;76;21106;-58
2023/01/04 05:53:28;;;;;;;32.90;16.32;;;9.20;93.10;;;;;;1890126;76;21142;-58
2023/01/04 05:55:57;;;;;;;34.70;17.37;;;9.20;93.20;;;;;;1889957;76;21166;-58
2023/01/04 05:58:27;;;;;;;33.25;19.35;;;9.20;93.40;;;;;;1890002;76;21100;-58
2023/01/04 06:00:56;;;;;;;32.75;18.50;;;9.20;93.50;;;;;;1889976;76;21013;-58
2023/01/04 06:03:25;;;;;;;24.47;15.70;;;9.30;93.50;;;;;;1889971;76;21146;-57
2023/01/04 06:05:54;;;;;;;40.88;17.10;;;9.30;93.40;;;;;;1889921;76;21195;-58
2023/01/04 06:08:23;;;;;;;26.70;15.13;;;9.30;93.50;;;;;;1889947;76;21048;-58
2023/01/04 06:10:55;;;;;;;28.32;15.55;;;9.40;93.50;;;;;;1889983;76;21142;-58
2023/01/04 06:13:24;;;;;;;31.97;14.40;;;9.40;93.50;;;;;;1889949;76;21072;-58
2023/01/04 06:15:53;;;;;;;20.88;13.38;;;9.50;93.50;;;;;;1889923;76;21135;-58
2023/01/04 06:18:23;;;;;;;17.52;10.98;;;9.60;93.50;;;;;;1889940;75;21122;-58
2023/01/04 06:20:52;;;;;;;18.35;11.68;;;9.60;93.40;;;;;;1890084;76;21159;-58
2023/01/04 06:23:21;;;;;;;21.02;11.88;;;9.70;93.30;;;;;;1890187;76;21214;-58
2023/01/04 06:25:50;;;;;;;19.62;11.73;;;9.60;93.20;;;;;;1890107;76;21013;-58
2023/01/04 06:28:20;;;;;;;20.65;12.07;;;9.60;93.20;;;;;;1890074;76;21132;-58
2023/01/04 06:30:49;;;;;;;14.45;11.57;;;9.60;93.10;;;;;;1890150;76;21077;-58
2023/01/04 06:33:19;;;;;;;21.62;12.40;;;9.60;93.10;;;;;;1890096;76;21136;-58
2023/01/04 06:35:55;;;;;;;19.05;12.37;;;9.60;93.10;;;;;;1890043;76;21045;-58
2023/01/04 06:38:24;;;;;;;14.93;9.75;;;9.50;92.90;;;;;;1890060;76;21250;-58
2023/01/04 06:40:53;;;;;;;20.95;12.60;;;9.40;92.70;;;;;;1890083;76;21154;-58
2023/01/04 06:43:22;;;;;;;14.80;10.38;;;9.30;92.80;;;;;;1890076;76;21188;-58
2023/01/04 06:45:51;;;;;;;20.55;13.50;;;9.10;92.90;;;;;;1890151;76;21200;-58
2023/01/04 06:48:20;;;;;;;19.62;12.40;;;9.00;93.00;;;;;;1890076;76;21145;-58
2023/01/04 06:50:50;;;;;;;33.28;19.15;;;9.00;93.10;;;;;;1889970;76;21284;-58
2023/01/04 06:53:19;;;;;;;21.57;13.50;;;8.90;93.10;;;;;;1890085;76;21298;-58
2023/01/04 06:55:48;;;;;;;25.43;14.68;;;8.90;93.30;;;;;;1890013;76;21321;-58
2023/01/04 06:58:17;;;;;;;28.25;15.88;;;8.90;93.40;;;;;;1890194;76;21203;-58
2023/01/04 07:00:46;;;;;;;27.87;15.05;;;8.80;93.30;;;;;;1890153;76;21265;-58
2023/01/04 07:03:16;;;;;;;28.45;15.38;;;8.80;93.40;;;;;;1890067;76;21142;-58
2023/01/04 07:05:45;;;;;;;30.65;15.68;;;8.70;93.50;;;;;;1890160;76;21163;-58
2023/01/04 07:08:15;;;;;;;26.93;14.15;;;8.70;93.90;;;;;;1890063;76;21048;-57
2023/01/04 07:10:44;;;;;;;29.90;15.00;;;8.60;94.00;;;;;;1890026;76;21731;-58
2023/01/04 07:13:13;;;;;;;29.70;15.20;;;8.60;94.10;;;;;;1890049;76;21132;-58
2023/01/04 07:15:42;;;;;;;31.87;15.63;;;8.50;93.90;;;;;;1889981;76;21224;-58
2023/01/04 07:18:12;;;;;;;28.75;14.95;;;8.50;93.60;;;;;;1890066;76;21072;-58
2023/01/04 07:20:41;;;;;;;28.57;14.20;;;8.50;93.80;;;;;;1892783;75;21244;-58
2023/01/04 07:23:11;;;;;;;26.17;13.70;;;8.50;93.90;;;;;;1893099;76;21127;-58
2023/01/04 07:25:40;;;;;;;25.10;15.05;;;8.60;93.90;;;;;;1893124;76;21308;-58
2023/01/04 07:28:09;;;;;;;28.65;14.93;;;8.60;93.70;;;;;;1893078;76;21164;-57
2023/01/04 07:30:38;;;;;;;26.17;15.95;;;8.60;94.10;;;;;;1893073;76;21507;-58
2023/01/04 07:33:08;;;;;;;24.80;14.60;;;8.60;93.70;;;;;;1893231;76;21155;-58
2023/01/04 07:35:37;;;;;;;27.22;16.02;;;8.60;93.90;;;;;;1893169;76;21208;-58
2023/01/04 07:38:06;;;;;;;31.90;15.15;;;8.60;94.00;;;;;;1893111;76;21283;-58
2023/01/04 07:40:35;;;;;;;26.20;14.83;;;8.60;93.90;;;;;;1893043;76;21290;-58
2023/01/04 07:43:04;;;;;;;38.48;15.75;;;8.50;94.10;;;;;;1893054;76;21311;-58
2023/01/04 07:45:34;;;;;;;26.45;15.15;;;8.50;94.10;;;;;;1893079;76;21150;-58
2023/01/04 07:48:04;;;;;;;28.00;13.78;;;8.50;94.00;;;;;;1893135;76;21146;-58
2023/01/04 07:50:33;;;;;;;26.35;15.03;;;8.50;94.20;;;;;;1893144;76;21160;-58
2023/01/04 07:53:02;;;;;;;35.00;15.95;;;8.50;94.30;;;;;;1893183;76;21252;-58
2023/01/04 07:55:31;;;;;;;28.92;14.40;;;8.50;94.40;;;;;;1892991;76;21283;-58
2023/01/04 07:58:00;;;;;;;28.10;14.07;;;8.60;94.10;;;;;;1893093;76;21196;-57
2023/01/04 08:00:29;;;;;;;28.95;14.85;;;8.60;94.40;;;;;;1893035;76;21666;-58
2023/01/04 08:02:59;;;;;;;28.87;13.60;;;8.60;94.20;;;;;;1893128;76;21064;-58
2023/01/04 08:05:28;;;;;;;34.23;14.87;;;8.60;94.40;;;;;;1893192;76;21220;-58
2023/01/04 08:07:57;;;;;;;34.00;15.23;;;8.60;94.40;;;;;;1893034;76;21342;-58
2023/01/04 08:10:26;;;;;;;35.58;15.70;;;8.60;94.20;;;;;;1893116;76;21124;-58
2023/01/04 08:12:56;;;;;;;40.45;17.87;;;8.60;94.50;;;;;;1893109;76;21645;-58
2023/01/04 08:15:26;;;;;;;36.65;16.60;;;8.60;94.30;;;;;;1893057;76;21267;-57
2023/01/04 08:17:56;;;;;;;34.38;15.88;;;8.70;94.40;;;;;;1893116;76;21103;-57
2023/01/04 08:20:25;;;;;;;30.37;14.68;;;8.80;94.40;;;;;;1893159;75;21355;-58
2023/01/04 08:22:54;;;;;;;34.85;16.40;;;8.80;94.30;;;;;;1893134;76;21184;-58
2023/01/04 08:25:23;;;;;;;42.80;17.32;;;8.90;94.30;;;;;;1893112;76;21048;-58
2023/01/04 08:27:52;;;;;;;34.65;15.55;;;8.90;94.30;;;;;;1893126;76;21318;-58
2023/01/04 08:30:22;;;;;;;39.30;16.80;;;8.90;94.30;;;;;;1893024;76;21517;-58
2023/01/04 08:32:52;;;;;;;46.35;17.87;;;8.90;94.30;;;;;;1893033;76;21500;-57
2023/01/04 08:35:21;;;;;;;32.55;16.60;;;9.00;94.40;;;;;;1892989;76;21176;-58
2023/01/04 08:37:50;;;;;;;47.88;17.50;;;9.10;94.40;;;;;;1893083;76;21195;-58
2023/01/04 08:40:19;;;;;;;34.67;17.15;;;9.10;94.30;;;;;;1893042;76;21615;-58
2023/01/04 08:42:48;;;;;;;39.83;18.73;;;9.10;94.20;;;;;;1893076;76;21168;-58
2023/01/04 08:45:18;;;;;;;40.50;18.10;;;9.20;94.30;;;;;;1893145;76;21286;-58
2023/01/04 08:47:46;;;;;;;35.13;17.15;;;9.20;94.30;;;;;;1893052;76;21678;-58
2023/01/04 08:50:17;;;;;;;37.78;18.75;;;9.20;94.20;;;;;;1893185;76;21151;-58
2023/01/04 08:52:47;;;;;;;39.70;19.50;;;9.30;94.20;;;;;;1893211;76;21682;-58
2023/01/04 08:55:16;;;;;;;35.33;17.30;;;9.30;94.10;;;;;;1893190;76;21237;-58
2023/01/04 08:57:45;;;;;;;41.10;19.15;;;9.30;94.10;;;;;;1893045;76;21235;-58
2023/01/04 09:00:17;;;;;;;43.75;20.05;;;9.30;94.00;;;;;;1893042;76;21112;-58
2023/01/04 09:02:46;;;;;;;41.75;19.40;;;9.30;94.10;;;;;;1893071;76;21252;-58
2023/01/04 09:05:15;;;;;;;45.40;19.35;;;9.30;94.00;;;;;;1893052;76;21347;-58
2023/01/04 09:07:46;;;;;;;39.10;19.35;;;9.30;94.10;;;;;;1893150;76;21171;-58
2023/01/04 09:10:15;;;;;;;44.15;18.90;;;9.40;94.10;;;;;;1893017;74;21325;-58
2023/01/04 09:12:46;;;;;;;48.52;21.35;;;9.40;94.20;;;;;;1893086;76;21213;-58
2023/01/04 09:15:15;;;;;;;37.78;19.02;;;9.50;94.20;;;;;;1893025;76;21244;-58
2023/01/04 09:17:45;;;;;;;43.65;19.25;;;9.60;94.20;;;;;;1893196;76;21495;-58
2023/01/04 09:20:14;;;;;;;46.40;20.82;;;9.70;94.30;;;;;;1893020;75;21461;-58
2023/01/04 09:22:43;;;;;;;40.08;19.52;;;9.70;94.30;;;;;;1893006;76;21449;-58
2023/01/04 09:25:12;;;;;;;39.20;20.72;;;9.80;94.20;;;;;;1893107;76;21579;-58
2023/01/04 09:27:42;;;;;;;42.75;21.40;;;9.90;94.20;;;;;;1893112;76;21108;-58
2023/01/04 09:30:12;;;;;;;40.30;21.05;;;9.90;94.20;;;;;;1893047;76;21138;-58
2023/01/04 09:32:41;;;;;;;48.80;22.02;;;9.90;94.20;;;;;;1893027;76;21073;-58
2023/01/04 09:35:11;;;;;;;48.90;22.40;;;9.90;94.20;;;;;;1893098;76;21200;-57
2023/01/04 09:37:40;;;;;;;46.00;23.35;;;9.90;94.10;;;;;;1893022;76;21182;-57
2023/01/04 09:40:12;;;;;;;39.03;21.60;;;9.90;94.00;;;;;;1893197;76;21230;-58
2023/01/04 09:42:45;;;;;;;41.95;19.73;;;9.90;94.00;;;;;;1893081;76;21283;-58
2023/01/04 09:45:23;;;;;;;43.75;21.97;;;9.80;93.80;;;;;;1893119;76;21164;-58
2023/01/04 09:48:01;;;;;;;41.08;20.45;;;9.80;94.00;;;;;;1893102;76;21234;-58
2023/01/04 09:50:35;;;;;;;43.00;23.42;;;9.70;94.00;;;;;;1883554;76;21383;-59
2023/01/04 09:53:28;;;;;;;44.18;22.60;;;9.70;94.00;;;;;;1870606;76;21977;-58
2023/01/04 09:56:00;;;;;;;37.30;19.30;;;9.60;94.00;;;;;;1830045;78;21188;-58
2023/01/04 09:58:32;;;;;;;42.48;21.95;;;9.60;94.00;;;;;;1858313;76;20999;-58
2023/01/04 10:01:04;;;;;;;35.15;20.40;;;9.50;94.10;;;;;;1868905;77;21165;-58
2023/01/04 10:03:38;;;;;;;48.30;22.05;;;9.50;94.10;;;;;;1868822;77;21176;-58
2023/01/04 10:06:14;;;;;;;40.58;21.30;;;9.40;94.10;;;;;;1869474;76;21278;-57
2023/01/04 10:08:43;;;;;;;38.15;20.48;;;9.40;94.30;;;;;;1874974;76;21295;-57
2023/01/04 10:11:24;;;;;;;29.52;18.07;;;9.40;94.30;;;;;;1874720;75;22732;-57
2023/01/04 10:14:01;;;;;;;28.07;15.28;;;9.30;94.30;;;;;;1875047;76;21261;-57
2023/01/04 10:16:36;;;;;;;23.87;14.65;;;9.30;94.30;;;;;;1874122;76;21164;-57
2023/01/04 10:19:20;;;;;;;20.02;11.48;;;9.30;94.40;;;;;;1875140;76;21191;-57
2023/01/04 10:22:08;;;;;;;25.82;14.50;;;9.20;94.40;;;;;;1883766;76;21758;-57
2023/01/04 10:25:05;;;;;;;28.07;15.85;;;9.20;94.40;;;;;;1890709;76;21239;-57
2023/01/04 10:27:52;;;;;;;28.67;16.40;;;9.10;94.40;;;;;;1890658;76;21329;-57
2023/01/04 10:30:29;;;;;;;30.40;15.88;;;9.10;94.70;;;;;;1889976;76;21158;-56
2023/01/04 10:33:10;;;;;;;29.63;16.65;;;9.00;94.70;;;;;;1890169;76;21219;-57
2023/01/04 10:35:42;;;;;;;27.35;16.27;;;9.00;94.60;;;;;;1890726;76;21704;-56
2023/01/04 10:38:20;;;;;;;31.82;18.10;;;9.00;94.40;;;;;;1890675;76;21166;-57
2023/01/04 10:40:49;;;;;;;29.92;16.20;;;9.00;94.50;;;;;;1890635;76;21697;-57
2023/01/04 10:43:27;;;;;;;37.05;19.02;;;8.90;94.60;;;;;;1890716;76;21141;-57
2023/01/04 10:46:08;;;;;;;28.27;16.60;;;8.90;94.60;;;;;;1886213;76;21250;-57
2023/01/04 10:48:46;;;;;;;34.25;16.20;;;8.90;94.60;;;;;;1890654;76;21303;-58
2023/01/04 10:51:17;;;;;;;29.32;16.48;;;8.80;94.80;;;;;;1885830;76;21584;-58
2023/01/04 10:53:52;;;;;;;22.25;12.25;;;8.80;94.80;;;;;;1890341;76;21319;-57
2023/01/04 10:56:26;;;;;;;35.63;16.75;;;8.80;94.90;;;;;;1888280;76;21353;-57
2023/01/04 10:59:03;;;;;;;;;;;8.70;95.20;;;;;;1893459;76;21424;-57
2023/01/04 11:01:35;;;;;;;;;;;8.70;94.90;;;;;;1893384;76;20585;-56
2023/01/04 11:04:12;;;;;;;27.80;14.47;;;8.70;95.00;;;;;;1890219;76;21187;-57
2023/01/04 11:07:08;;;;;;;27.73;16.27;;;8.70;95.00;;;;;;1890592;76;21292;-57
2023/01/04 11:09:46;;;;;;;26.12;12.43;;;8.70;95.10;;;;;;1890628;76;21728;-57
2023/01/04 11:12:17;;;;;;;30.35;15.10;;;8.60;95.20;;;;;;1890532;76;21342;-57
2023/01/04 11:14:47;;;;;;;30.27;15.88;;;8.60;95.30;;;;;;1890867;76;21662;-56
2023/01/04 11:17:16;;;;;;;28.57;15.70;;;8.50;95.30;;;;;;1890788;76;21356;-57
2023/01/04 11:19:45;;;;;;;35.05;18.30;;;8.50;95.60;;;;;;1890808;75;21191;-57
2023/01/04 11:22:19;;;;;;;32.45;17.98;;;8.50;95.50;;;;;;1890598;76;21368;-57
2023/01/04 11:24:51;;;;;;;33.78;17.52;;;8.50;95.20;;;;;;1890784;76;21268;-57
2023/01/04 11:27:23;;;;;;;31.45;17.57;;;8.50;95.20;;;;;;1890750;76;21560;-57
2023/01/04 11:30:11;;;;;;;30.60;16.42;;;8.50;95.10;;;;;;1890675;76;21125;-57
2023/01/04 11:33:01;;;;;;;26.27;14.50;;;8.50;95.10;;;;;;1890827;76;21100;-57
2023/01/04 11:35:42;;;;;;;37.30;16.73;;;8.50;95.10;;;;;;1890615;76;21126;-57
2023/01/04 11:38:22;;;;;;;26.77;12.75;;;8.50;95.10;;;;;;1890690;76;21651;-57
2023/01/04 11:41:00;;;;;;;22.75;12.80;;;8.50;95.10;;;;;;1890678;76;21454;-57
2023/01/04 11:43:31;;;;;;;31.10;16.07;;;8.50;95.00;;;;;;1890612;74;21190;-57
2023/01/04 11:46:06;;;;;;;25.48;14.58;;;8.50;95.10;;;;;;1890616;76;21285;-57
2023/01/04 11:48:38;;;;;;;32.23;17.15;;;8.50;95.00;;;;;;1890810;76;21203;-57
2023/01/04 11:51:10;;;;;;;25.50;14.30;;;8.60;95.00;;;;;;1890458;74;21182;-57
2023/01/04 11:53:39;;;;;;;50.73;21.75;;;8.60;95.00;;;;;;1877660;76;21667;-57
2023/01/04 11:56:16;;;;;;;49.13;22.20;;;8.60;95.10;;;;;;1890414;76;21405;-57
2023/01/04 11:59:06;;;;;;;50.52;24.63;;;8.60;94.90;;;;;;1890589;76;21377;-57
2023/01/04 12:01:48;;;;;;;32.33;17.55;;;8.60;94.80;;;;;;1890518;76;21174;-57
2023/01/04 12:04:19;;;;;;;43.23;19.37;;;8.60;94.80;;;;;;1890513;76;21316;-57
2023/01/04 12:07:14;;;;;;;33.90;16.60;;;8.70;94.80;;;;;;1890488;76;21111;-57
2023/01/04 12:09:43;;;;;;;34.50;16.27;;;8.70;94.70;;;;;;1888485;76;21160;-58
2023/01/04 12:12:13;;;;;;;31.95;16.52;;;8.70;94.70;;;;;;1890505;76;21355;-57
2023/01/04 12:14:44;;;;;;;23.12;14.03;;;8.70;94.70;;;;;;1890465;76;21085;-57
2023/01/04 12:17:32;;;;;;;25.95;15.48;;;8.70;94.70;;;;;;1890521;76;21605;-57
2023/01/04 12:20:06;;;;;;;38.42;20.10;;;8.70;94.70;;;;;;1890487;76;21211;-57
2023/01/04 12:22:37;;;;;;;42.67;20.48;;;8.70;94.60;;;;;;1890464;76;21754;-57
2023/01/04 12:25:09;;;;;;;44.73;21.57;;;8.70;94.60;;;;;;1889746;76;21271;-57
2023/01/04 12:27:39;;;;;;;32.45;16.45;;;8.70;94.60;;;;;;1888649;76;21341;-57
2023/01/04 12:30:10;;;;;;;31.23;16.95;;;8.70;94.50;;;;;;1889492;76;21150;-57
2023/01/04 12:32:40;;;;;;;23.60;12.47;;;8.70;94.60;;;;;;1886794;76;21739;-57
2023/01/04 12:35:12;;;;;;;28.30;15.38;;;8.70;94.60;;;;;;1890554;75;21078;-58
2023/01/04 12:37:48;;;;;;;16.37;10.00;;;8.70;94.50;;;;;;1862989;76;21373;-57
2023/01/04 12:40:46;;;;;;;22.10;12.65;;;8.70;94.40;;;;;;1890551;76;21369;-57
2023/01/04 12:43:26;;;;;;;26.77;16.00;;;8.60;94.30;;;;;;1890539;76;21667;-56
2023/01/04 12:49:28;;;;;;;28.07;12.78;;;8.50;94.20;;;;;;1890468;76;21312;-57
2023/01/04 12:52:12;;;;;;;25.23;14.28;;;8.50;94.30;;;;;;1890541;76;21150;-56
2023/01/04 12:55:04;;;;;;;24.40;14.30;;;8.40;94.40;;;;;;1890420;76;21126;-56
2023/01/04 12:57:35;;;;;;;18.00;11.65;;;8.40;94.40;;;;;;1889903;76;21466;-57
2023/01/04 13:00:12;;;;;;;21.73;13.43;;;8.40;94.40;;;;;;1890694;76;21085;-57
2023/01/04 13:02:51;;;;;;;18.67;11.22;;;8.40;94.40;;;;;;1890474;76;21718;-57
2023/01/04 13:05:23;;;;;;;26.57;14.03;;;8.40;94.40;;;;;;1890479;76;21354;-56
2023/01/04 13:07:57;;;;;;;20.32;10.98;;;8.40;94.40;;;;;;1890381;76;21263;-57
2023/01/04 13:10:38;;;;;;;23.00;13.00;;;8.40;94.50;;;;;;1890213;76;21779;-57
2023/01/04 13:13:22;;;;;;;26.48;13.40;;;8.40;94.40;;;;;;1890459;76;21187;-57
2023/01/04 13:16:00;;;;;;;32.90;15.98;;;8.30;94.40;;;;;;1890564;74;21125;-57
2023/01/04 13:18:38;;;;;;;28.47;15.20;;;8.30;94.30;;;;;;1890417;75;21264;-57
2023/01/04 13:21:13;;;;;;;29.55;14.10;;;8.30;94.30;;;;;;1890437;76;21272;-57
2023/01/04 13:23:51;;;;;;;24.02;14.80;;;8.30;94.30;;;;;;1877892;75;21198;-57
2023/01/04 13:26:35;;;;;;;25.32;13.20;;;8.30;94.20;;;;;;1870796;77;21302;-57
2023/01/04 13:29:19;;;;;;;23.83;12.85;;;8.30;94.20;;;;;;1871533;77;21068;-57
2023/01/04 13:32:05;;;;;;;32.73;17.48;;;8.30;94.20;;;;;;1871988;77;21309;-57
2023/01/04 13:34:39;;;;;;;20.43;10.10;;;8.30;94.20;;;;;;1871737;77;21238;-57
2023/01/04 13:37:13;;;;;;;23.73;12.63;;;8.20;94.10;;;;;;1871817;77;21218;-57
2023/01/04 13:39:45;;;;;;;16.20;9.75;;;8.20;94.10;;;;;;1871660;77;21856;-57
2023/01/04 13:42:20;;;;;;;23.55;12.28;;;8.20;94.10;;;;;;1870369;77;21084;-57
2023/01/04 13:44:50;;;;;;;;;;;8.20;94.10;;;;;;1874283;77;21207;-58
2023/01/04 13:47:19;;;;;;;16.97;10.60;;;8.20;94.10;;;;;;1871498;77;20668;-57
2023/01/04 13:49:48;;;;;;;20.97;11.88;;;8.10;94.10;;;;;;1871622;77;21539;-57
2023/01/04 13:52:25;;;;;;;14.90;9.20;;;8.10;94.10;;;;;;1871520;77;21051;-57
2023/01/04 13:55:21;;;;;;;20.43;9.83;;;8.10;94.20;;;;;;1871489;77;21106;-57